Time;durP1;ratioP1;P1;durP2;ratioP2;P2;SDS_P1;SDS_P2;PMS_P1;PMS_P2;Temp;Humidity;BMP_temperature;BMP_pressure;BME280_temperature;BME280_humidity;BME280_pressure;Samples;Min_cycle;Max_cycle;Signal;HPM_P1;HPM_P2
2022/10/04 00:00:57;;;;;;;4.65;1.83;;;;;;;;;;5035364;28;20022;-64
2022/10/04 00:03:26;;;;;;;7.93;2.80;;;;;;;;;;5034878;28;20034;-64
2022/10/04 00:05:55;;;;;;;5.57;2.40;;;;;;;;;;5035167;28;20040;-64
2022/10/04 00:08:27;;;;;;;7.90;2.00;;;;;;;;;;5035395;28;20189;-64
2022/10/04 00:11:08;;;;;;;7.93;2.00;;;;;;;;;;5035321;28;20037;-64
2022/10/04 00:13:36;;;;;;;3.47;1.77;;;;;;;;;;5034927;28;20299;-64
2022/10/04 00:16:02;;;;;;;3.35;2.28;;;;;;;;;;5035489;28;20032;-64
2022/10/04 00:18:31;;;;;;;9.90;2.08;;;;;;;;;;5034304;28;20030;-64
2022/10/04 00:20:59;;;;;;;6.85;2.05;;;;;;;;;;5034927;28;20390;-64
2022/10/04 00:23:30;;;;;;;6.38;2.25;;;;;;;;;;5035078;28;20064;-64
2022/10/04 00:25:56;;;;;;;4.40;2.03;;;;;;;;;;5035320;28;20022;-64
2022/10/04 00:28:25;;;;;;;5.20;2.38;;;;;;;;;;5035126;28;20029;-64
2022/10/04 00:31:09;;;;;;;8.85;3.25;;;;;;;;;;5034904;28;20093;-64
2022/10/04 00:33:49;;;;;;;6.47;2.72;;;;;;;;;;5034666;28;20029;-64
2022/10/04 00:36:24;;;;;;;3.75;2.28;;;;;;;;;;5034068;28;20044;-64
2022/10/04 00:39:09;;;;;;;7.05;3.47;;;;;;;;;;5033657;28;20036;-64
2022/10/04 00:41:48;;;;;;;10.25;3.42;;;;;;;;;;5034496;28;20104;-64
2022/10/04 00:44:21;;;;;;;5.30;3.38;;;;;;;;;;5034802;28;20025;-64
2022/10/04 00:46:48;;;;;;;10.45;4.35;;;;;;;;;;5034446;28;20079;-64
2022/10/04 00:49:15;;;;;;;12.27;4.30;;;;;;;;;;5033941;28;20025;-64
2022/10/04 00:51:43;;;;;;;7.97;3.97;;;;;;;;;;5034224;28;20029;-64
2022/10/04 00:54:12;;;;;;;9.60;3.88;;;;;;;;;;5034755;28;20039;-64
2022/10/04 00:56:50;;;;;;;10.10;3.88;;;;;;;;;;5034138;28;20089;-64
2022/10/04 00:59:16;;;;;;;10.80;4.18;;;;;;;;;;5034663;28;20025;-64
2022/10/04 01:01:44;;;;;;;12.05;4.20;;;;;;;;;;5033746;28;20105;-64
2022/10/04 01:04:33;;;;;;;7.30;4.00;;;;;;;;;;5034586;28;20034;-64
2022/10/04 01:07:02;;;;;;;9.07;5.13;;;;;;;;;;5034103;28;20132;-64
2022/10/04 01:09:29;;;;;;;12.13;4.35;;;;;;;;;;5032971;28;20045;-64
2022/10/04 01:12:15;;;;;;;13.45;5.70;;;;;;;;;;5034381;28;20036;-64
2022/10/04 01:14:51;;;;;;;7.50;4.45;;;;;;;;;;5033479;28;20493;-64
2022/10/04 01:17:18;;;;;;;9.27;5.03;;;;;;;;;;5033857;28;20119;-64
2022/10/04 01:19:52;;;;;;;9.80;4.53;;;;;;;;;;5014015;28;20045;-64
2022/10/04 01:22:40;;;;;;;6.88;4.28;;;;;;;;;;5025896;28;20108;-64
2022/10/04 01:25:06;;;;;;;7.80;4.25;;;;;;;;;;5034284;28;20220;-64
2022/10/04 01:27:34;;;;;;;12.20;5.35;;;;;;;;;;5033931;28;20079;-64
2022/10/04 01:30:01;;;;;;;8.73;4.45;;;;;;;;;;5033972;28;20475;-64
2022/10/04 01:32:29;;;;;;;12.68;6.13;;;;;;;;;;5033550;28;20033;-64
2022/10/04 01:34:56;;;;;;;8.93;5.00;;;;;;;;;;5033926;28;20029;-64
2022/10/04 01:37:22;;;;;;;8.90;4.20;;;;;;;;;;5034143;28;20025;-64
2022/10/04 01:39:48;;;;;;;7.80;4.72;;;;;;;;;;5033523;28;20565;-64
2022/10/04 01:42:23;;;;;;;10.07;4.80;;;;;;;;;;5033748;28;20028;-64
2022/10/04 01:45:01;;;;;;;10.52;4.35;;;;;;;;;;5033024;28;20029;-64
2022/10/04 01:47:40;;;;;;;7.28;4.53;;;;;;;;;;5033501;28;20446;-64
2022/10/04 01:50:19;;;;;;;8.98;4.22;;;;;;;;;;5033611;28;20082;-64
2022/10/04 01:52:48;;;;;;;10.35;4.93;;;;;;;;;;5033544;28;20045;-64
2022/10/04 01:55:19;;;;;;;6.70;4.47;;;;;;;;;;5033203;28;20100;-64
2022/10/04 01:57:51;;;;;;;7.82;4.07;;;;;;;;;;5032938;28;20030;-64
2022/10/04 02:00:20;;;;;;;10.70;4.57;;;;;;;;;;5032139;28;20029;-64
2022/10/04 02:02:53;;;;;;;7.50;4.28;;;;;;;;;;5033323;28;20509;-64
2022/10/04 02:05:19;;;;;;;;;;;;;;;;;;5033509;28;20034;-64
2022/10/04 02:07:45;;;;;;;6.30;4.05;;;;;;;;;;5033005;28;19913;-64
2022/10/04 02:10:16;;;;;;;7.90;3.95;;;;;;;;;;5033194;28;20460;-64
2022/10/04 02:12:45;;;;;;;6.80;3.97;;;;;;;;;;5033148;28;20374;-64
2022/10/04 02:15:12;;;;;;;7.43;3.85;;;;;;;;;;5032416;28;20021;-64
2022/10/04 02:17:41;;;;;;;8.05;3.63;;;;;;;;;;5033211;28;20022;-64
2022/10/04 02:20:15;;;;;;;8.85;4.13;;;;;;;;;;5032908;28;20063;-64
2022/10/04 02:22:42;;;;;;;9.30;4.45;;;;;;;;;;5032825;28;20120;-64
2022/10/04 02:25:09;;;;;;;10.65;4.25;;;;;;;;;;5032817;28;20036;-64
2022/10/04 02:27:35;;;;;;;11.07;3.78;;;;;;;;;;5032908;28;20037;-64
2022/10/04 02:30:02;;;;;;;5.03;3.85;;;;;;;;;;5032381;28;20025;-64
2022/10/04 02:35:15;;;;;;;8.02;5.03;;;;;;;;;;5032596;28;20033;-64
2022/10/04 02:37:41;;;;;;;8.55;3.42;;;;;;;;;;5032716;28;20022;-64
2022/10/04 02:40:10;;;;;;;6.53;3.35;;;;;;;;;;5032783;28;20125;-64
2022/10/04 02:42:56;;;;;;;8.00;3.25;;;;;;;;;;5032450;28;20136;-64
2022/10/04 02:45:32;;;;;;;5.65;3.55;;;;;;;;;;5032515;28;20129;-64
2022/10/04 02:48:02;;;;;;;5.30;3.42;;;;;;;;;;5032593;28;20037;-64
2022/10/04 02:50:30;;;;;;;4.95;3.05;;;;;;;;;;5032687;28;20034;-64
2022/10/04 02:53:01;;;;;;;4.93;3.13;;;;;;;;;;5032501;28;20026;-64
2022/10/04 02:55:29;;;;;;;7.13;3.13;;;;;;;;;;5032387;28;20033;-64
2022/10/04 02:57:55;;;;;;;12.43;3.45;;;;;;;;;;5031972;28;20021;-64
2022/10/04 03:00:26;;;;;;;7.05;3.47;;;;;;;;;;5032575;28;20022;-64
2022/10/04 03:03:11;;;;;;;8.85;3.25;;;;;;;;;;5031827;28;20064;-64
2022/10/04 03:05:38;;;;;;;5.13;2.90;;;;;;;;;;5032498;28;20208;-64
2022/10/04 03:08:05;;;;;;;3.63;2.67;;;;;;;;;;5032081;28;20026;-64
2022/10/04 03:10:31;;;;;;;5.85;2.92;;;;;;;;;;5032298;28;20056;-64
2022/10/04 03:12:57;;;;;;;4.57;2.67;;;;;;;;;;5031536;28;20052;-64
2022/10/04 03:15:24;;;;;;;5.60;3.22;;;;;;;;;;5032038;28;20502;-64
2022/10/04 03:17:50;;;;;;;10.65;3.55;;;;;;;;;;5032014;28;20057;-64
2022/10/04 03:20:20;;;;;;;12.90;3.70;;;;;;;;;;5032347;28;20021;-64
2022/10/04 03:22:48;;;;;;;7.13;2.92;;;;;;;;;;5032192;28;20366;-64
2022/10/04 03:25:17;;;;;;;7.55;2.70;;;;;;;;;;5032255;28;20060;-64
2022/10/04 03:27:43;;;;;;;8.88;3.05;;;;;;;;;;5031753;28;20025;-64
2022/10/04 03:30:18;;;;;;;6.50;2.45;;;;;;;;;;5031851;28;20025;-64
2022/10/04 03:32:45;;;;;;;10.88;3.15;;;;;;;;;;5032056;28;20029;-64
2022/10/04 03:35:27;;;;;;;3.70;2.65;;;;;;;;;;5032025;28;20389;-64
2022/10/04 03:37:55;;;;;;;5.85;2.95;;;;;;;;;;5032148;28;20135;-64
2022/10/04 03:40:26;;;;;;;6.00;3.05;;;;;;;;;;5031958;28;20021;-64
2022/10/04 03:42:52;;;;;;;4.45;2.70;;;;;;;;;;5031347;28;20026;-64
2022/10/04 03:45:19;;;;;;;6.70;2.67;;;;;;;;;;5031543;28;20037;-64
2022/10/04 03:47:47;;;;;;;5.72;2.72;;;;;;;;;;5031580;28;20033;-64
2022/10/04 03:50:23;;;;;;;5.47;2.92;;;;;;;;;;5032032;28;20025;-64
2022/10/04 03:52:56;;;;;;;7.72;2.55;;;;;;;;;;5031848;28;20512;-64
2022/10/04 03:55:31;;;;;;;9.30;2.60;;;;;;;;;;5031566;28;20045;-64
2022/10/04 03:57:59;;;;;;;7.07;3.08;;;;;;;;;;5031674;28;20409;-64
2022/10/04 04:00:25;;;;;;;4.93;2.78;;;;;;;;;;5029596;28;20021;-64
2022/10/04 04:02:51;;;;;;;5.32;3.00;;;;;;;;;;5025883;28;20112;-64
2022/10/04 04:05:20;;;;;;;6.30;3.15;;;;;;;;;;5029368;28;20444;-64
2022/10/04 04:07:50;;;;;;;6.97;3.50;;;;;;;;;;5025980;28;20036;-64
2022/10/04 04:10:22;;;;;;;11.55;3.45;;;;;;;;;;5031254;28;20041;-63
2022/10/04 04:13:21;;;;;;;9.90;3.25;;;;;;;;;;5029205;28;20038;-63
2022/10/04 04:15:47;;;;;;;6.20;3.10;;;;;;;;;;5019526;28;20068;-63
2022/10/04 04:18:18;;;;;;;14.20;3.88;;;;;;;;;;5031766;28;20121;-63
2022/10/04 04:20:45;;;;;;;7.10;3.42;;;;;;;;;;5030418;28;20030;-63
2022/10/04 04:23:14;;;;;;;9.02;3.05;;;;;;;;;;5015253;28;20025;-63
2022/10/04 04:25:42;;;;;;;5.82;2.85;;;;;;;;;;5033649;28;20124;-63
2022/10/04 04:28:27;;;;;;;7.47;3.20;;;;;;;;;;5035093;28;20432;-63
2022/10/04 04:30:57;;;;;;;6.25;3.15;;;;;;;;;;5033136;28;20060;-63
2022/10/04 04:33:31;;;;;;;7.25;2.83;;;;;;;;;;5035355;28;20037;-63
2022/10/04 04:36:05;;;;;;;6.07;3.05;;;;;;;;;;5034803;28;20836;-64
2022/10/04 04:38:31;;;;;;;6.80;2.70;;;;;;;;;;5035152;28;20033;-64
2022/10/04 04:41:07;;;;;;;4.80;2.40;;;;;;;;;;5031662;28;20032;-64
2022/10/04 04:43:34;;;;;;;5.82;2.35;;;;;;;;;;5033873;28;20112;-64
2022/10/04 04:46:00;;;;;;;7.38;2.38;;;;;;;;;;5033071;28;20037;-64
2022/10/04 04:48:27;;;;;;;4.95;2.40;;;;;;;;;;5033672;28;20029;-64
2022/10/04 04:50:56;;;;;;;3.95;2.20;;;;;;;;;;5031601;28;20025;-64
2022/10/04 04:53:23;;;;;;;2.58;2.03;;;;;;;;;;5034347;28;20041;-64
2022/10/04 04:55:57;;;;;;;4.70;2.35;;;;;;;;;;5032596;28;20029;-64
2022/10/04 04:58:26;;;;;;;6.95;2.03;;;;;;;;;;5033997;28;20025;-64
2022/10/04 05:01:03;;;;;;;4.95;2.05;;;;;;;;;;5032234;28;20044;-64
2022/10/04 05:03:30;;;;;;;8.43;2.70;;;;;;;;;;5034817;28;20032;-64
2022/10/04 05:05:59;;;;;;;3.85;2.00;;;;;;;;;;5034461;28;20025;-64
2022/10/04 05:08:29;;;;;;;3.20;1.80;;;;;;;;;;5032845;28;20025;-64
2022/10/04 05:11:07;;;;;;;5.38;1.90;;;;;;;;;;5029385;28;20048;-64
2022/10/04 05:13:33;;;;;;;7.63;2.17;;;;;;;;;;5033637;28;20477;-64
2022/10/04 05:16:00;;;;;;;3.20;1.65;;;;;;;;;;5037431;28;20506;-64
2022/10/04 05:18:28;;;;;;;6.68;1.98;;;;;;;;;;5043700;28;20028;-64
2022/10/04 05:20:55;;;;;;;5.93;2.53;;;;;;;;;;5024426;28;20053;-64
2022/10/04 05:23:22;;;;;;;4.13;1.48;;;;;;;;;;5031745;28;20033;-64
2022/10/04 05:25:49;;;;;;;5.03;1.30;;;;;;;;;;5035283;28;20442;-64
2022/10/04 05:28:16;;;;;;;3.50;1.17;;;;;;;;;;5032874;28;20374;-64
2022/10/04 05:30:47;;;;;;;6.03;1.23;;;;;;;;;;5032450;28;20543;-64
2022/10/04 05:33:17;;;;;;;2.72;1.20;;;;;;;;;;5032053;28;20116;-64
2022/10/04 05:36:03;;;;;;;6.70;1.48;;;;;;;;;;5032673;28;20079;-64
2022/10/04 05:38:38;;;;;;;4.38;1.30;;;;;;;;;;5032971;28;20037;-64
2022/10/04 05:41:10;;;;;;;3.05;1.20;;;;;;;;;;5032104;28;20489;-63
2022/10/04 05:43:48;;;;;;;1.73;1.10;;;;;;;;;;5030856;28;20034;-64
2022/10/04 05:46:23;;;;;;;1.92;0.88;;;;;;;;;;5026204;28;20032;-64
2022/10/04 05:48:54;;;;;;;1.50;0.90;;;;;;;;;;5030390;28;20497;-64
2022/10/04 05:51:30;;;;;;;5.97;1.27;;;;;;;;;;5045585;28;20032;-63
2022/10/04 05:54:02;;;;;;;5.63;0.85;;;;;;;;;;5025587;28;20026;-63
2022/10/04 05:56:28;;;;;;;3.75;0.95;;;;;;;;;;5031749;28;20030;-63
2022/10/04 05:59:06;;;;;;;2.17;1.08;;;;;;;;;;5033378;28;20030;-63
2022/10/04 06:01:40;;;;;;;1.08;0.90;;;;;;;;;;5029239;28;20113;-63
2022/10/04 06:04:19;;;;;;;3.08;0.90;;;;;;;;;;5045195;28;20032;-63
2022/10/04 06:06:53;;;;;;;7.15;1.00;;;;;;;;;;5038236;28;20425;-63
2022/10/04 06:09:34;;;;;;;3.25;0.95;;;;;;;;;;5034855;28;20046;-63
2022/10/04 06:12:00;;;;;;;6.07;1.52;;;;;;;;;;5036948;28;20104;-63
2022/10/04 06:14:29;;;;;;;4.68;0.98;;;;;;;;;;5043753;28;20078;-63
2022/10/04 06:16:55;;;;;;;6.50;1.25;;;;;;;;;;5032185;28;20392;-63
2022/10/04 06:19:40;;;;;;;2.38;1.10;;;;;;;;;;5032151;28;20032;-63
2022/10/04 06:22:06;;;;;;;2.25;1.08;;;;;;;;;;5026740;28;20017;-63
2022/10/04 06:24:36;;;;;;;1.60;0.95;;;;;;;;;;5032911;28;20088;-63
2022/10/04 06:27:04;;;;;;;12.75;1.13;;;;;;;;;;5052207;28;20521;-64
2022/10/04 06:29:33;;;;;;;3.70;0.75;;;;;;;;;;5051371;28;20032;-63
2022/10/04 06:31:59;;;;;;;4.75;1.23;;;;;;;;;;5042729;28;20049;-63
2022/10/04 06:34:26;;;;;;;2.17;1.02;;;;;;;;;;5035853;28;20437;-63
2022/10/04 06:37:08;;;;;;;4.50;1.13;;;;;;;;;;5048406;28;20060;-63
2022/10/04 06:39:37;;;;;;;6.07;2.33;;;;;;;;;;5047609;28;20033;-63
2022/10/04 06:42:07;;;;;;;2.72;1.10;;;;;;;;;;5032555;28;20097;-63
2022/10/04 06:44:35;;;;;;;2.70;1.00;;;;;;;;;;5036958;28;20025;-63
2022/10/04 06:47:15;;;;;;;3.72;1.25;;;;;;;;;;5051467;28;20119;-64
2022/10/04 06:49:52;;;;;;;6.25;1.15;;;;;;;;;;5044944;28;20036;-63
2022/10/04 06:52:26;;;;;;;3.92;1.30;;;;;;;;;;5034275;28;20625;-64
2022/10/04 06:55:04;;;;;;;4.65;1.23;;;;;;;;;;5030827;28;20029;-63
2022/10/04 06:57:36;;;;;;;2.78;1.27;;;;;;;;;;5035576;28;20037;-63
2022/10/04 07:00:08;;;;;;;3.30;1.27;;;;;;;;;;5033285;28;20033;-64
2022/10/04 07:02:34;;;;;;;3.20;1.27;;;;;;;;;;5036476;28;20034;-64
2022/10/04 07:05:04;;;;;;;4.30;1.40;;;;;;;;;;5031216;28;20516;-63
2022/10/04 07:07:35;;;;;;;8.77;2.38;;;;;;;;;;5029500;28;20088;-63
2022/10/04 07:10:15;;;;;;;4.00;1.50;;;;;;;;;;5034817;28;20139;-63
2022/10/04 07:12:43;;;;;;;5.47;2.13;;;;;;;;;;5027230;28;20037;-63
2022/10/04 07:15:16;;;;;;;3.63;1.30;;;;;;;;;;5041008;28;20543;-63
2022/10/04 07:17:42;;;;;;;4.60;1.02;;;;;;;;;;5041795;28;20025;-63
2022/10/04 07:20:21;;;;;;;4.00;1.35;;;;;;;;;;5033574;28;20037;-63
2022/10/04 07:22:55;;;;;;;4.03;1.10;;;;;;;;;;5033512;28;20092;-63
2022/10/04 07:25:27;;;;;;;6.13;1.40;;;;;;;;;;5030484;28;20037;-63
2022/10/04 07:29:19;;;;;;;5.28;1.30;;;;;;;;;;5034079;28;20040;-63
2022/10/04 07:30:43;;;;;;;2.17;0.85;;;;;;;;;;5032561;28;20064;-63
2022/10/04 07:33:13;;;;;;;4.47;1.00;;;;;;;;;;5035013;28;20052;-63
2022/10/04 07:35:44;;;;;;;6.95;1.10;;;;;;;;;;5026424;28;20037;-63
2022/10/04 07:38:16;;;;;;;3.20;1.00;;;;;;;;;;5031310;28;20088;-63
2022/10/04 07:40:54;;;;;;;3.27;1.20;;;;;;;;;;5031393;28;20405;-63
2022/10/04 07:43:25;;;;;;;4.13;1.05;;;;;;;;;;5032547;28;20256;-63
2022/10/04 07:45:54;;;;;;;3.97;0.80;;;;;;;;;;5034051;28;20021;-63
2022/10/04 07:48:24;;;;;;;2.50;0.70;;;;;;;;;;5033093;28;20053;-63
2022/10/04 07:50:51;;;;;;;2.97;0.73;;;;;;;;;;5035653;28;20037;-63
2022/10/04 07:53:23;;;;;;;1.33;0.77;;;;;;;;;;5031452;28;20663;-63
2022/10/04 07:55:49;;;;;;;1.52;0.55;;;;;;;;;;5030263;28;20409;-63
2022/10/04 07:58:35;;;;;;;2.03;0.68;;;;;;;;;;5030112;28;20420;-63
2022/10/04 08:01:16;;;;;;;1.27;0.50;;;;;;;;;;5029673;28;20042;-63
2022/10/04 08:03:46;;;;;;;2.63;0.50;;;;;;;;;;5033469;28;20029;-63
2022/10/04 08:06:16;;;;;;;3.35;0.70;;;;;;;;;;5033494;28;20052;-63
2022/10/04 08:08:42;;;;;;;1.55;0.60;;;;;;;;;;5034767;28;20040;-63
2022/10/04 08:11:30;;;;;;;3.22;0.60;;;;;;;;;;5033961;28;20075;-63
2022/10/04 08:14:09;;;;;;;0.90;0.47;;;;;;;;;;5033462;28;20037;-63
2022/10/04 08:16:36;;;;;;;2.17;0.40;;;;;;;;;;5027090;28;20088;-63
2022/10/04 08:19:16;;;;;;;2.65;0.60;;;;;;;;;;5032582;28;20021;-63
2022/10/04 08:22:03;;;;;;;1.25;0.55;;;;;;;;;;5028809;28;20022;-63
2022/10/04 08:24:36;;;;;;;0.93;0.50;;;;;;;;;;5033027;28;20029;-63
2022/10/04 08:27:31;;;;;;;1.15;0.50;;;;;;;;;;5033470;28;20025;-63
2022/10/04 08:30:03;;;;;;;0.45;0.40;;;;;;;;;;5023864;28;20083;-63
2022/10/04 08:32:40;;;;;;;0.98;0.68;;;;;;;;;;5032286;28;20041;-63
2022/10/04 08:35:06;;;;;;;1.58;0.57;;;;;;;;;;5031775;28;20079;-63
2022/10/04 08:37:32;;;;;;;0.90;0.43;;;;;;;;;;5034306;28;20034;-63
2022/10/04 08:40:31;;;;;;;1.73;0.30;;;;;;;;;;5033753;28;20032;-63
2022/10/04 08:43:08;;;;;;;1.77;0.25;;;;;;;;;;5031215;28;20044;-63
2022/10/04 08:45:34;;;;;;;1.38;0.50;;;;;;;;;;5031475;28;20033;-63
2022/10/04 08:48:17;;;;;;;1.13;0.50;;;;;;;;;;5030702;28;20247;-63
2022/10/04 08:51:02;;;;;;;1.10;0.30;;;;;;;;;;5030857;28;20030;-63
2022/10/04 08:53:44;;;;;;;1.63;0.50;;;;;;;;;;5030716;28;20037;-63
2022/10/04 08:56:12;;;;;;;0.43;0.20;;;;;;;;;;5029303;28;20044;-63
2022/10/04 08:58:47;;;;;;;1.65;0.43;;;;;;;;;;5030581;28;20411;-63
2022/10/04 09:01:19;;;;;;;2.03;0.30;;;;;;;;;;5029079;28;20029;-63
2022/10/04 09:04:03;;;;;;;0.98;0.43;;;;;;;;;;5031042;28;20029;-63
2022/10/04 09:06:32;;;;;;;0.73;0.20;;;;;;;;;;5030708;28;20045;-63
2022/10/04 09:09:13;;;;;;;1.38;0.20;;;;;;;;;;5029347;28;20072;-63
2022/10/04 09:11:50;;;;;;;1.33;0.35;;;;;;;;;;5029679;28;20068;-63
2022/10/04 09:14:34;;;;;;;0.65;0.38;;;;;;;;;;5030338;28;20038;-63
2022/10/04 09:17:20;;;;;;;1.58;0.40;;;;;;;;;;5038470;28;20508;-63
2022/10/04 09:19:52;;;;;;;0.88;0.28;;;;;;;;;;5036498;28;20091;-63
2022/10/04 09:22:25;;;;;;;0.30;0.30;;;;;;;;;;5030128;28;20029;-63
2022/10/04 09:24:51;;;;;;;;;;;;;;;;;;5034145;28;20050;-63
2022/10/04 09:27:38;;;;;;;0.80;0.60;;;;;;;;;;5031426;28;19909;-63
2022/10/04 09:30:05;;;;;;;1.83;0.70;;;;;;;;;;5030303;28;20042;-63
2022/10/04 09:32:51;;;;;;;1.88;0.80;;;;;;;;;;5035633;28;20029;-63
2022/10/04 09:35:23;;;;;;;1.83;0.70;;;;;;;;;;5031276;28;20396;-63
2022/10/04 09:38:09;;;;;;;2.22;0.73;;;;;;;;;;5031034;28;20021;-63
2022/10/04 09:40:50;;;;;;;1.63;0.57;;;;;;;;;;5028006;28;20484;-63
2022/10/04 09:43:33;;;;;;;2.40;0.60;;;;;;;;;;5030732;28;20087;-63
2022/10/04 09:46:32;;;;;;;1.30;0.77;;;;;;;;;;5028513;28;20032;-63
2022/10/04 09:49:21;;;;;;;1.83;0.40;;;;;;;;;;5030573;28;20037;-63
2022/10/04 09:52:05;;;;;;;1.15;0.30;;;;;;;;;;5031655;28;20072;-63
2022/10/04 09:54:50;;;;;;;0.50;0.40;;;;;;;;;;5033519;28;20072;-63
2022/10/04 09:57:19;;;;;;;0.63;0.40;;;;;;;;;;5030279;28;20036;-63
2022/10/04 09:59:45;;;;;;;0.38;0.38;;;;;;;;;;5033223;28;20006;-63
2022/10/04 10:02:37;;;;;;;4.22;0.40;;;;;;;;;;5037816;28;20112;-63
2022/10/04 10:05:22;;;;;;;2.47;0.50;;;;;;;;;;5034214;28;20045;-63
2022/10/04 10:07:52;;;;;;;5.57;0.40;;;;;;;;;;5030812;28;20033;-63
2022/10/04 10:13:41;;;;;;;2.50;0.35;;;;;;;;;;5034845;28;20022;-63
2022/10/04 10:16:24;;;;;;;1.05;0.30;;;;;;;;;;5027990;28;20040;-63
2022/10/04 10:18:51;;;;;;;0.57;0.25;;;;;;;;;;5026518;28;20053;-63
2022/10/04 10:21:43;;;;;;;2.08;0.35;;;;;;;;;;5025624;28;20044;-63
2022/10/04 10:24:34;;;;;;;2.13;0.32;;;;;;;;;;5026501;28;20591;-63
2022/10/04 10:27:01;;;;;;;1.20;0.32;;;;;;;;;;5026524;28;20051;-63
2022/10/04 10:29:27;;;;;;;0.43;0.30;;;;;;;;;;5031165;28;20101;-63
2022/10/04 10:31:59;;;;;;;4.15;0.77;;;;;;;;;;5028442;28;20117;-63
2022/10/04 10:34:47;;;;;;;1.10;0.50;;;;;;;;;;5033623;28;20029;-63
2022/10/04 10:37:17;;;;;;;0.73;0.38;;;;;;;;;;5040100;28;20510;-63
2022/10/04 10:40:03;;;;;;;1.58;0.73;;;;;;;;;;5028579;28;20025;-63
2022/10/04 10:42:32;;;;;;;2.92;0.52;;;;;;;;;;5030224;28;20048;-63
2022/10/04 10:44:58;;;;;;;0.73;0.28;;;;;;;;;;5031392;28;20029;-63
2022/10/04 10:47:25;;;;;;;1.02;0.35;;;;;;;;;;5032491;28;20029;-63
2022/10/04 10:50:03;;;;;;;2.58;0.30;;;;;;;;;;5034650;28;20029;-63
2022/10/04 10:52:36;;;;;;;2.75;0.43;;;;;;;;;;5030799;28;20045;-63
2022/10/04 10:55:02;;;;;;;;;;;;;;;;;;5033012;28;20086;-63
2022/10/04 10:57:40;;;;;;;0.75;0.40;;;;;;;;;;5032961;28;20007;-63
2022/10/04 11:00:16;;;;;;;0.73;0.30;;;;;;;;;;5030183;28;20022;-63
2022/10/04 11:02:45;;;;;;;2.13;0.32;;;;;;;;;;5020279;28;20361;-63
2022/10/04 11:05:30;;;;;;;3.03;0.40;;;;;;;;;;5021103;28;20076;-63
2022/10/04 11:08:16;;;;;;;0.90;0.30;;;;;;;;;;5031761;28;20505;-63
2022/10/04 11:11:00;;;;;;;4.32;0.80;;;;;;;;;;5029181;28;20049;-63
2022/10/04 11:13:47;;;;;;;0.80;0.40;;;;;;;;;;5024690;28;20087;-63
2022/10/04 11:16:15;;;;;;;2.78;0.50;;;;;;;;;;5031515;28;20036;-63
2022/10/04 11:19:05;;;;;;;1.20;0.30;;;;;;;;;;5031166;28;20034;-63
2022/10/04 11:21:46;;;;;;;2.40;0.57;;;;;;;;;;5032041;28;20065;-63
2022/10/04 11:24:21;;;;;;;1.30;0.55;;;;;;;;;;5033098;28;20060;-63
2022/10/04 11:27:04;;;;;;;2.55;0.43;;;;;;;;;;5030033;28;20080;-63
2022/10/04 11:29:30;;;;;;;2.92;0.50;;;;;;;;;;5031167;28;20029;-63
2022/10/04 11:32:22;;;;;;;1.92;0.60;;;;;;;;;;5019364;28;20029;-62
2022/10/04 11:34:59;;;;;;;3.38;0.50;;;;;;;;;;5036492;28;20444;-62
2022/10/04 11:37:29;;;;;;;0.77;0.40;;;;;;;;;;5035677;28;20033;-62
2022/10/04 11:40:17;;;;;;;1.90;0.30;;;;;;;;;;5035046;28;20033;-63
2022/10/04 11:43:00;;;;;;;2.03;0.50;;;;;;;;;;5028612;28;20044;-63
2022/10/04 11:45:32;;;;;;;;;;;;;;;;;;5026187;28;20041;-63
2022/10/04 11:48:13;;;;;;;1.38;0.30;;;;;;;;;;5042908;28;19916;-63
2022/10/04 11:51:01;;;;;;;2.53;0.43;;;;;;;;;;5038327;28;20405;-63
2022/10/04 11:53:43;;;;;;;1.20;0.40;;;;;;;;;;5033468;28;20037;-63
2022/10/04 11:56:22;;;;;;;0.40;0.30;;;;;;;;;;5034250;28;20025;-63
2022/10/04 11:59:07;;;;;;;0.75;0.43;;;;;;;;;;5035639;28;20037;-63
2022/10/04 12:01:49;;;;;;;0.50;0.30;;;;;;;;;;5030950;28;20496;-63
2022/10/04 12:04:16;;;;;;;1.50;0.70;;;;;;;;;;5045282;28;20111;-63
2022/10/04 12:06:43;;;;;;;1.80;0.88;;;;;;;;;;5031799;28;20080;-63
2022/10/04 12:09:16;;;;;;;0.50;0.50;;;;;;;;;;5021112;28;20045;-63
2022/10/04 12:14:50;;;;;;;2.53;0.60;;;;;;;;;;5033441;28;20308;-63
2022/10/04 12:17:20;;;;;;;1.55;0.55;;;;;;;;;;5035342;28;20022;-63
2022/10/04 12:20:04;;;;;;;2.08;0.52;;;;;;;;;;5037343;28;20018;-65
2022/10/04 12:22:42;;;;;;;1.70;0.70;;;;;;;;;;5036516;28;20505;-63
2022/10/04 12:25:14;;;;;;;2.05;0.70;;;;;;;;;;5033961;28;20493;-63
2022/10/04 12:27:59;;;;;;;3.13;0.70;;;;;;;;;;5034875;28;20040;-63
2022/10/04 12:30:29;;;;;;;1.95;0.80;;;;;;;;;;5031439;28;20030;-63
2022/10/04 12:33:14;;;;;;;2.28;0.70;;;;;;;;;;5033727;28;20489;-64
2022/10/04 12:35:40;;;;;;;1.23;0.50;;;;;;;;;;5030044;28;20033;-64
2022/10/04 12:38:14;;;;;;;4.60;0.88;;;;;;;;;;5030126;28;20033;-63
2022/10/04 12:40:41;;;;;;;1.50;0.60;;;;;;;;;;5025837;28;20028;-63
2022/10/04 12:43:30;;;;;;;1.08;0.70;;;;;;;;;;5023858;28;20480;-63
2022/10/04 12:46:11;;;;;;;0.77;0.52;;;;;;;;;;5026384;28;20432;-63
2022/10/04 12:48:55;;;;;;;2.80;0.80;;;;;;;;;;5022686;28;20057;-63
2022/10/04 12:51:39;;;;;;;3.60;0.55;;;;;;;;;;5026763;28;20042;-63
2022/10/04 12:54:12;;;;;;;1.45;0.70;;;;;;;;;;5025955;28;20037;-63
2022/10/04 12:56:57;;;;;;;2.42;0.60;;;;;;;;;;5021488;28;20402;-63
2022/10/04 12:59:29;;;;;;;1.55;0.80;;;;;;;;;;5025956;28;20034;-63
2022/10/04 13:02:20;;;;;;;3.60;0.77;;;;;;;;;;5024311;28;20029;-63
2022/10/04 13:04:54;;;;;;;1.85;0.57;;;;;;;;;;5024549;28;20116;-63
2022/10/04 13:07:30;;;;;;;5.10;0.60;;;;;;;;;;5027308;28;20076;-63
2022/10/04 13:09:59;;;;;;;3.30;0.60;;;;;;;;;;5025293;28;20045;-63
2022/10/04 13:12:31;;;;;;;3.88;1.10;;;;;;;;;;5020363;28;20034;-63
2022/10/04 13:15:03;;;;;;;2.38;0.60;;;;;;;;;;5016782;28;20030;-63
2022/10/04 13:17:32;;;;;;;2.50;0.70;;;;;;;;;;5017864;28;20159;-63
2022/10/04 13:20:16;;;;;;;3.42;0.73;;;;;;;;;;5025142;28;20033;-63
2022/10/04 13:22:49;;;;;;;4.00;0.90;;;;;;;;;;5029339;28;20034;-63
2022/10/04 13:25:24;;;;;;;2.47;0.65;;;;;;;;;;5020978;28;21217;-63
2022/10/04 13:28:04;;;;;;;3.47;0.80;;;;;;;;;;5022174;28;20034;-63
2022/10/04 13:30:47;;;;;;;4.57;0.60;;;;;;;;;;5028157;28;20212;-63
2022/10/04 13:33:23;;;;;;;0.73;0.60;;;;;;;;;;5023554;28;20482;-64
2022/10/04 13:35:49;;;;;;;1.92;0.70;;;;;;;;;;5024755;28;20040;-64
2022/10/04 13:38:27;;;;;;;0.95;0.70;;;;;;;;;;5022940;28;20663;-64
2022/10/04 13:41:02;;;;;;;1.38;0.75;;;;;;;;;;5025775;28;20477;-63
2022/10/04 13:43:43;;;;;;;3.95;0.60;;;;;;;;;;5025674;28;20034;-63
2022/10/04 13:46:28;;;;;;;0.75;0.60;;;;;;;;;;5023833;28;20489;-63
2022/10/04 13:49:06;;;;;;;2.28;0.80;;;;;;;;;;5021540;28;20037;-63
2022/10/04 13:56:35;;;;;;;1.05;0.40;;;;;;;;;;5023889;28;20187;-63
2022/10/04 13:57:37;;;;;;;4.38;0.90;;;;;;;;;;5031292;28;20033;-63
2022/10/04 14:00:06;;;;;;;2.95;0.70;;;;;;;;;;5027658;28;20108;-63
2022/10/04 14:02:44;;;;;;;1.35;0.70;;;;;;;;;;5024182;28;20042;-63
2022/10/04 14:05:30;;;;;;;2.83;0.50;;;;;;;;;;5023311;28;20131;-63
2022/10/04 14:08:08;;;;;;;0.80;0.63;;;;;;;;;;5022120;28;20521;-63
2022/10/04 14:10:34;;;;;;;1.30;0.50;;;;;;;;;;5023075;28;20099;-63
2022/10/04 14:13:24;;;;;;;3.35;0.60;;;;;;;;;;5023134;28;20575;-63
2022/10/04 14:16:00;;;;;;;1.58;0.60;;;;;;;;;;5026911;28;20037;-63
2022/10/04 14:18:35;;;;;;;0.85;0.50;;;;;;;;;;5025192;28;20026;-63
2022/10/04 14:21:12;;;;;;;2.88;0.75;;;;;;;;;;5025820;28;20029;-63
2022/10/04 14:23:43;;;;;;;1.15;0.70;;;;;;;;;;5026285;28;20022;-63
2022/10/04 14:26:25;;;;;;;2.67;0.60;;;;;;;;;;5027874;28;20488;-63
2022/10/04 14:28:55;;;;;;;0.68;0.50;;;;;;;;;;5026217;28;20083;-63
2022/10/04 14:31:32;;;;;;;1.50;0.55;;;;;;;;;;5023020;28;20087;-63
2022/10/04 14:34:22;;;;;;;2.72;0.63;;;;;;;;;;5029281;28;20507;-63
2022/10/04 14:37:00;;;;;;;5.38;0.80;;;;;;;;;;5022210;28;20036;-63
2022/10/04 14:39:45;;;;;;;1.60;0.60;;;;;;;;;;5023628;28;20113;-63
2022/10/04 14:42:17;;;;;;;3.95;0.68;;;;;;;;;;5025437;28;20029;-63
2022/10/04 14:45:08;;;;;;;3.40;0.80;;;;;;;;;;5024249;28;20041;-63
2022/10/04 14:47:37;;;;;;;2.97;0.60;;;;;;;;;;5020158;28;20029;-63
2022/10/04 14:50:18;;;;;;;2.90;0.43;;;;;;;;;;5023198;28;20491;-63
2022/10/04 14:52:59;;;;;;;2.58;0.57;;;;;;;;;;5023170;28;20026;-63
2022/10/04 14:55:35;;;;;;;1.80;0.52;;;;;;;;;;5024547;28;20393;-63
2022/10/04 14:58:20;;;;;;;0.95;0.43;;;;;;;;;;5018939;28;20517;-63
2022/10/04 15:01:06;;;;;;;5.78;0.73;;;;;;;;;;5022414;28;20029;-63
2022/10/04 15:03:32;;;;;;;2.83;0.45;;;;;;;;;;5022660;28;20029;-63
2022/10/04 15:06:10;;;;;;;1.58;0.40;;;;;;;;;;5025877;28;20613;-63
2022/10/04 15:08:42;;;;;;;1.50;0.52;;;;;;;;;;5023935;28;20065;-63
2022/10/04 15:11:11;;;;;;;2.75;0.60;;;;;;;;;;5023265;28;20409;-63
2022/10/04 15:13:57;;;;;;;2.90;0.80;;;;;;;;;;5020212;28;20091;-63
2022/10/04 15:16:46;;;;;;;1.48;0.57;;;;;;;;;;5023204;28;20026;-63
2022/10/04 15:19:21;;;;;;;6.15;0.85;;;;;;;;;;5029114;28;20052;-63
2022/10/04 15:21:50;;;;;;;1.02;0.60;;;;;;;;;;5027625;28;20098;-63
2022/10/04 15:24:16;;;;;;;2.10;0.60;;;;;;;;;;5028342;28;20029;-63
2022/10/04 15:26:45;;;;;;;1.38;0.57;;;;;;;;;;5024534;28;20137;-63
2022/10/04 15:29:30;;;;;;;1.50;0.40;;;;;;;;;;5024120;28;20057;-63
2022/10/04 15:32:19;;;;;;;1.23;0.50;;;;;;;;;;5025723;28;20347;-63
2022/10/04 15:35:05;;;;;;;1.15;0.63;;;;;;;;;;5021672;28;20120;-63
2022/10/04 15:37:44;;;;;;;1.17;0.50;;;;;;;;;;5026142;28;20040;-63